sensor_id;sensor_type;location;lat;lon;timestamp;temperature;humidity
9271;DHT22;4673;53.458;9.940;2023-10-09T00:00:24;11.00;85.90
9271;DHT22;4673;53.458;9.940;2023-10-09T00:03:17;11.00;85.90
9271;DHT22;4673;53.458;9.940;2023-10-09T00:05:43;11.00;86.10
9271;DHT22;4673;53.458;9.940;2023-10-09T00:08:14;10.90;86.20
9271;DHT22;4673;53.458;9.940;2023-10-09T00:10:51;10.90;86.30
9271;DHT22;4673;53.458;9.940;2023-10-09T00:13:26;11.00;86.70
9271;DHT22;4673;53.458;9.940;2023-10-09T00:16:05;11.00;86.80
9271;DHT22;4673;53.458;9.940;2023-10-09T00:18:39;11.00;86.90
9271;DHT22;4673;53.458;9.940;2023-10-09T00:21:05;11.00;87.10
9271;DHT22;4673;53.458;9.940;2023-10-09T00:23:38;11.00;87.40
9271;DHT22;4673;53.458;9.940;2023-10-09T00:26:03;11.00;87.40
9271;DHT22;4673;53.458;9.940;2023-10-09T00:28:42;11.00;87.00
9271;DHT22;4673;53.458;9.940;2023-10-09T00:31:10;11.00;86.80
9271;DHT22;4673;53.458;9.940;2023-10-09T00:33:40;11.00;86.90
9271;DHT22;4673;53.458;9.940;2023-10-09T00:36:07;11.00;87.00
9271;DHT22;4673;53.458;9.940;2023-10-09T00:38:37;11.00;87.20
9271;DHT22;4673;53.458;9.940;2023-10-09T00:41:05;11.00;87.30
9271;DHT22;4673;53.458;9.940;2023-10-09T00:43:31;11.00;87.50
9271;DHT22;4673;53.458;9.940;2023-10-09T00:45:58;10.90;87.70
9271;DHT22;4673;53.458;9.940;2023-10-09T00:48:44;10.90;88.00
9271;DHT22;4673;53.458;9.940;2023-10-09T00:51:13;10.90;88.30
9271;DHT22;4673;53.458;9.940;2023-10-09T00:53:48;10.90;88.40
9271;DHT22;4673;53.458;9.940;2023-10-09T00:56:21;10.90;88.50
9271;DHT22;4673;53.458;9.940;2023-10-09T00:58:51;10.80;88.50
9271;DHT22;4673;53.458;9.940;2023-10-09T01:01:40;10.80;88.70
9271;DHT22;4673;53.458;9.940;2023-10-09T01:04:10;10.80;89.00
9271;DHT22;4673;53.458;9.940;2023-10-09T01:06:38;10.80;89.10
9271;DHT22;4673;53.458;9.940;2023-10-09T01:09:15;10.80;89.40
9271;DHT22;4673;53.458;9.940;2023-10-09T01:11:45;10.70;89.50
9271;DHT22;4673;53.458;9.940;2023-10-09T01:14:17;10.70;89.70
9271;DHT22;4673;53.458;9.940;2023-10-09T01:16:46;10.70;90.40
9271;DHT22;4673;53.458;9.940;2023-10-09T01:19:12;10.70;90.70
9271;DHT22;4673;53.458;9.940;2023-10-09T01:21:39;10.70;90.70
9271;DHT22;4673;53.458;9.940;2023-10-09T01:24:07;10.60;90.80
9271;DHT22;4673;53.458;9.940;2023-10-09T01:26:38;10.60;90.90
9271;DHT22;4673;53.458;9.940;2023-10-09T01:29:11;10.60;91.30
9271;DHT22;4673;53.458;9.940;2023-10-09T01:31:52;10.60;91.60
9271;DHT22;4673;53.458;9.940;2023-10-09T01:34:21;10.60;91.90
9271;DHT22;4673;53.458;9.940;2023-10-09T01:36:53;10.60;92.00
9271;DHT22;4673;53.458;9.940;2023-10-09T01:39:25;10.60;92.10
9271;DHT22;4673;53.458;9.940;2023-10-09T01:41:54;10.60;92.30
9271;DHT22;4673;53.458;9.940;2023-10-09T01:44:32;10.60;92.20
9271;DHT22;4673;53.458;9.940;2023-10-09T01:47:06;10.60;92.00
9271;DHT22;4673;53.458;9.940;2023-10-09T01:49:39;10.60;92.20
9271;DHT22;4673;53.458;9.940;2023-10-09T01:52:12;10.80;92.50
9271;DHT22;4673;53.458;9.940;2023-10-09T01:54:42;10.60;92.40
9271;DHT22;4673;53.458;9.940;2023-10-09T01:57:12;10.60;92.50
9271;DHT22;4673;53.458;9.940;2023-10-09T01:59:43;10.60;92.70
9271;DHT22;4673;53.458;9.940;2023-10-09T02:02:16;10.60;92.70
9271;DHT22;4673;53.458;9.940;2023-10-09T02:05:03;10.70;93.00
9271;DHT22;4673;53.458;9.940;2023-10-09T02:07:41;10.70;93.00
9271;DHT22;4673;53.458;9.940;2023-10-09T02:10:13;10.70;93.00
9271;DHT22;4673;53.458;9.940;2023-10-09T02:12:52;10.60;92.90
9271;DHT22;4673;53.458;9.940;2023-10-09T02:15:19;10.60;92.80
9271;DHT22;4673;53.458;9.940;2023-10-09T02:18:05;10.60;92.80
9271;DHT22;4673;53.458;9.940;2023-10-09T02:20:42;10.50;92.80
9271;DHT22;4673;53.458;9.940;2023-10-09T02:23:10;10.50;92.90
9271;DHT22;4673;53.458;9.940;2023-10-09T02:25:39;10.50;93.00
9271;DHT22;4673;53.458;9.940;2023-10-09T02:28:09;10.50;93.00
9271;DHT22;4673;53.458;9.940;2023-10-09T02:30:34;10.50;93.00
9271;DHT22;4673;53.458;9.940;2023-10-09T02:33:00;10.50;93.20
9271;DHT22;4673;53.458;9.940;2023-10-09T02:35:32;10.50;93.40
9271;DHT22;4673;53.458;9.940;2023-10-09T02:38:02;10.50;93.50
9271;DHT22;4673;53.458;9.940;2023-10-09T02:40:32;10.60;93.60
9271;DHT22;4673;53.458;9.940;2023-10-09T02:43:06;10.60;93.70
9271;DHT22;4673;53.458;9.940;2023-10-09T02:45:32;10.50;93.20
9271;DHT22;4673;53.458;9.940;2023-10-09T02:48:03;10.40;93.10
9271;DHT22;4673;53.458;9.940;2023-10-09T02:50:36;10.40;93.00
9271;DHT22;4673;53.458;9.940;2023-10-09T02:53:03;10.40;92.90
9271;DHT22;4673;53.458;9.940;2023-10-09T02:55:35;10.40;93.10
9271;DHT22;4673;53.458;9.940;2023-10-09T02:58:04;10.40;92.80
9271;DHT22;4673;53.458;9.940;2023-10-09T03:00:32;10.40;92.70
9271;DHT22;4673;53.458;9.940;2023-10-09T03:03:02;10.40;92.90
9271;DHT22;4673;53.458;9.940;2023-10-09T03:05:30;10.40;94.50
9271;DHT22;4673;53.458;9.940;2023-10-09T03:07:55;10.30;92.20
9271;DHT22;4673;53.458;9.940;2023-10-09T03:10:25;10.30;92.00
9271;DHT22;4673;53.458;9.940;2023-10-09T03:12:51;10.30;92.30
9271;DHT22;4673;53.458;9.940;2023-10-09T03:15:22;10.30;92.40
9271;DHT22;4673;53.458;9.940;2023-10-09T03:17:48;10.30;92.10
9271;DHT22;4673;53.458;9.940;2023-10-09T03:20:14;10.20;91.90
9271;DHT22;4673;53.458;9.940;2023-10-09T03:22:43;10.20;91.90
9271;DHT22;4673;53.458;9.940;2023-10-09T03:25:10;10.20;91.90
9271;DHT22;4673;53.458;9.940;2023-10-09T03:27:43;10.20;91.80
9271;DHT22;4673;53.458;9.940;2023-10-09T03:30:16;10.10;91.70
9271;DHT22;4673;53.458;9.940;2023-10-09T03:32:52;10.20;91.70
9271;DHT22;4673;53.458;9.940;2023-10-09T03:35:19;10.20;91.70
9271;DHT22;4673;53.458;9.940;2023-10-09T03:37:57;10.20;91.60
9271;DHT22;4673;53.458;9.940;2023-10-09T03:40:25;10.10;91.40
9271;DHT22;4673;53.458;9.940;2023-10-09T03:42:52;10.10;91.50
9271;DHT22;4673;53.458;9.940;2023-10-09T03:45:19;10.20;91.50
9271;DHT22;4673;53.458;9.940;2023-10-09T03:47:54;10.10;91.40
9271;DHT22;4673;53.458;9.940;2023-10-09T03:50:28;10.10;91.50
9271;DHT22;4673;53.458;9.940;2023-10-09T03:53:06;10.10;91.30
9271;DHT22;4673;53.458;9.940;2023-10-09T03:55:36;10.10;91.30
9271;DHT22;4673;53.458;9.940;2023-10-09T03:58:04;10.10;91.30
9271;DHT22;4673;53.458;9.940;2023-10-09T04:00:29;10.10;91.20
9271;DHT22;4673;53.458;9.940;2023-10-09T04:02:57;10.10;91.20
9271;DHT22;4673;53.458;9.940;2023-10-09T04:05:24;10.10;91.20
9271;DHT22;4673;53.458;9.940;2023-10-09T04:07:50;10.10;91.20
9271;DHT22;4673;53.458;9.940;2023-10-09T04:10:19;10.10;91.20
9271;DHT22;4673;53.458;9.940;2023-10-09T04:13:03;10.30;91.20
9271;DHT22;4673;53.458;9.940;2023-10-09T04:15:29;10.10;90.90
9271;DHT22;4673;53.458;9.940;2023-10-09T04:17:56;10.10;90.90
9271;DHT22;4673;53.458;9.940;2023-10-09T04:20:22;10.10;90.70
9271;DHT22;4673;53.458;9.940;2023-10-09T04:22:48;10.10;90.70
9271;DHT22;4673;53.458;9.940;2023-10-09T04:25:18;10.10;90.70
9271;DHT22;4673;53.458;9.940;2023-10-09T04:27:56;10.00;90.60
9271;DHT22;4673;53.458;9.940;2023-10-09T04:30:40;10.10;90.70
9271;DHT22;4673;53.458;9.940;2023-10-09T04:33:09;10.00;90.40
9271;DHT22;4673;53.458;9.940;2023-10-09T04:36:13;10.10;90.30
9271;DHT22;4673;53.458;9.940;2023-10-09T04:38:52;10.00;90.10
9271;DHT22;4673;53.458;9.940;2023-10-09T04:41:41;10.00;90.20
9271;DHT22;4673;53.458;9.940;2023-10-09T04:44:07;10.00;89.90
9271;DHT22;4673;53.458;9.940;2023-10-09T04:46:45;9.90;89.70
9271;DHT22;4673;53.458;9.940;2023-10-09T04:49:32;10.00;89.70
9271;DHT22;4673;53.458;9.940;2023-10-09T04:52:15;9.90;89.50
9271;DHT22;4673;53.458;9.940;2023-10-09T04:54:45;9.90;89.40
9271;DHT22;4673;53.458;9.940;2023-10-09T04:57:29;9.90;89.40
9271;DHT22;4673;53.458;9.940;2023-10-09T04:59:55;10.00;89.50
9271;DHT22;4673;53.458;9.940;2023-10-09T05:02:26;9.90;89.50
9271;DHT22;4673;53.458;9.940;2023-10-09T05:05:02;9.90;89.50
9271;DHT22;4673;53.458;9.940;2023-10-09T05:07:47;9.90;89.50
9271;DHT22;4673;53.458;9.940;2023-10-09T05:10:22;9.90;89.60
9271;DHT22;4673;53.458;9.940;2023-10-09T05:12:51;9.90;89.50
9271;DHT22;4673;53.458;9.940;2023-10-09T05:15:25;9.90;89.60
9271;DHT22;4673;53.458;9.940;2023-10-09T05:17:58;9.90;89.70
9271;DHT22;4673;53.458;9.940;2023-10-09T05:20:34;9.90;89.80
9271;DHT22;4673;53.458;9.940;2023-10-09T05:23:19;9.90;89.50
9271;DHT22;4673;53.458;9.940;2023-10-09T05:25:51;9.80;89.10
9271;DHT22;4673;53.458;9.940;2023-10-09T05:28:22;9.80;89.10
9271;DHT22;4673;53.458;9.940;2023-10-09T05:30:51;9.80;89.00
9271;DHT22;4673;53.458;9.940;2023-10-09T05:33:29;9.80;88.80
9271;DHT22;4673;53.458;9.940;2023-10-09T05:35:54;9.70;88.80
9271;DHT22;4673;53.458;9.940;2023-10-09T05:38:38;9.80;88.90
9271;DHT22;4673;53.458;9.940;2023-10-09T05:41:12;9.80;89.10
9271;DHT22;4673;53.458;9.940;2023-10-09T05:43:56;9.80;89.30
9271;DHT22;4673;53.458;9.940;2023-10-09T05:46:54;9.80;89.60
9271;DHT22;4673;53.458;9.940;2023-10-09T05:49:38;9.70;89.70
9271;DHT22;4673;53.458;9.940;2023-10-09T05:52:22;9.70;89.90
9271;DHT22;4673;53.458;9.940;2023-10-09T05:55:06;9.70;89.90
9271;DHT22;4673;53.458;9.940;2023-10-09T05:57:56;9.70;90.10
9271;DHT22;4673;53.458;9.940;2023-10-09T06:00:40;9.70;90.50
9271;DHT22;4673;53.458;9.940;2023-10-09T06:03:24;9.70;90.80
9271;DHT22;4673;53.458;9.940;2023-10-09T06:06:13;9.70;90.80
9271;DHT22;4673;53.458;9.940;2023-10-09T06:09:01;9.70;90.90
9271;DHT22;4673;53.458;9.940;2023-10-09T06:11:42;9.70;91.10
9271;DHT22;4673;53.458;9.940;2023-10-09T06:14:18;9.70;91.30
9271;DHT22;4673;53.458;9.940;2023-10-09T06:16:58;9.70;91.40
9271;DHT22;4673;53.458;9.940;2023-10-09T06:19:27;9.70;91.60
9271;DHT22;4673;53.458;9.940;2023-10-09T06:21:58;9.70;91.70
9271;DHT22;4673;53.458;9.940;2023-10-09T06:24:42;9.70;91.60
9271;DHT22;4673;53.458;9.940;2023-10-09T06:27:12;9.70;91.60
9271;DHT22;4673;53.458;9.940;2023-10-09T06:29:42;9.60;91.50
9271;DHT22;4673;53.458;9.940;2023-10-09T06:32:13;9.60;91.60
9271;DHT22;4673;53.458;9.940;2023-10-09T06:34:58;9.60;91.70
9271;DHT22;4673;53.458;9.940;2023-10-09T06:37:44;9.60;91.80
9271;DHT22;4673;53.458;9.940;2023-10-09T06:40:33;9.60;91.80
9271;DHT22;4673;53.458;9.940;2023-10-09T06:43:08;9.60;92.00
9271;DHT22;4673;53.458;9.940;2023-10-09T06:45:58;9.70;92.20
9271;DHT22;4673;53.458;9.940;2023-10-09T06:48:24;9.70;92.20
9271;DHT22;4673;53.458;9.940;2023-10-09T06:51:03;9.70;92.20
9271;DHT22;4673;53.458;9.940;2023-10-09T06:53:44;9.70;92.20
9271;DHT22;4673;53.458;9.940;2023-10-09T06:58:58;9.70;92.20
9271;DHT22;4673;53.458;9.940;2023-10-09T07:01:27;9.70;92.30
9271;DHT22;4673;53.458;9.940;2023-10-09T07:03:53;9.70;92.30
9271;DHT22;4673;53.458;9.940;2023-10-09T07:06:20;9.70;92.20
9271;DHT22;4673;53.458;9.940;2023-10-09T07:08:53;9.70;92.00
9271;DHT22;4673;53.458;9.940;2023-10-09T07:11:40;9.70;92.00
9271;DHT22;4673;53.458;9.940;2023-10-09T07:14:14;9.70;92.30
9271;DHT22;4673;53.458;9.940;2023-10-09T07:17:02;9.80;92.50
9271;DHT22;4673;53.458;9.940;2023-10-09T07:19:44;9.70;92.70
9271;DHT22;4673;53.458;9.940;2023-10-09T07:22:13;9.80;92.90
9271;DHT22;4673;53.458;9.940;2023-10-09T07:24:46;9.80;92.90
9271;DHT22;4673;53.458;9.940;2023-10-09T07:27:32;9.90;93.20
9271;DHT22;4673;53.458;9.940;2023-10-09T07:30:15;9.90;93.10
9271;DHT22;4673;53.458;9.940;2023-10-09T07:33:00;9.90;93.10
9271;DHT22;4673;53.458;9.940;2023-10-09T07:40:40;9.90;93.40
9271;DHT22;4673;53.458;9.940;2023-10-09T07:43:28;10.00;93.50
9271;DHT22;4673;53.458;9.940;2023-10-09T07:46:02;10.00;93.60
9271;DHT22;4673;53.458;9.940;2023-10-09T07:48:47;10.00;93.70
9271;DHT22;4673;53.458;9.940;2023-10-09T07:51:22;10.10;93.90
9271;DHT22;4673;53.458;9.940;2023-10-09T07:53:58;10.10;93.90
9271;DHT22;4673;53.458;9.940;2023-10-09T07:56:35;10.10;93.80
9271;DHT22;4673;53.458;9.940;2023-10-09T07:59:07;10.20;94.00
9271;DHT22;4673;53.458;9.940;2023-10-09T08:01:48;10.20;94.00
9271;DHT22;4673;53.458;9.940;2023-10-09T08:04:25;10.30;94.10
9271;DHT22;4673;53.458;9.940;2023-10-09T08:07:04;10.30;94.20
9271;DHT22;4673;53.458;9.940;2023-10-09T08:09:47;10.40;94.30
9271;DHT22;4673;53.458;9.940;2023-10-09T08:12:37;10.60;94.60
9271;DHT22;4673;53.458;9.940;2023-10-09T08:15:24;10.70;94.60
9271;DHT22;4673;53.458;9.940;2023-10-09T08:18:22;10.80;94.50
9271;DHT22;4673;53.458;9.940;2023-10-09T08:20:54;11.10;94.30
9271;DHT22;4673;53.458;9.940;2023-10-09T08:23:23;11.20;94.00
9271;DHT22;4673;53.458;9.940;2023-10-09T08:26:08;11.30;93.60
9271;DHT22;4673;53.458;9.940;2023-10-09T08:28:46;11.30;92.90
9271;DHT22;4673;53.458;9.940;2023-10-09T08:31:13;11.40;92.20
9271;DHT22;4673;53.458;9.940;2023-10-09T08:33:48;11.40;91.50
9271;DHT22;4673;53.458;9.940;2023-10-09T08:36:35;11.40;90.70
9271;DHT22;4673;53.458;9.940;2023-10-09T08:39:03;11.30;90.00
9271;DHT22;4673;53.458;9.940;2023-10-09T08:41:51;11.30;89.80
9271;DHT22;4673;53.458;9.940;2023-10-09T08:44:25;11.30;89.80
9271;DHT22;4673;53.458;9.940;2023-10-09T08:46:54;11.30;89.90
9271;DHT22;4673;53.458;9.940;2023-10-09T08:49:20;11.30;89.90
9271;DHT22;4673;53.458;9.940;2023-10-09T08:51:47;11.30;89.90
9271;DHT22;4673;53.458;9.940;2023-10-09T08:54:13;11.30;89.80
9271;DHT22;4673;53.458;9.940;2023-10-09T08:56:41;11.30;89.60
9271;DHT22;4673;53.458;9.940;2023-10-09T08:59:16;11.30;89.50
9271;DHT22;4673;53.458;9.940;2023-10-09T09:01:48;11.30;89.00
9271;DHT22;4673;53.458;9.940;2023-10-09T09:04:34;11.20;89.00
9271;DHT22;4673;53.458;9.940;2023-10-09T09:07:01;11.20;89.10
9271;DHT22;4673;53.458;9.940;2023-10-09T09:09:27;11.20;89.30
9271;DHT22;4673;53.458;9.940;2023-10-09T09:11:56;11.20;89.70
9271;DHT22;4673;53.458;9.940;2023-10-09T09:14:38;11.30;90.30
9271;DHT22;4673;53.458;9.940;2023-10-09T09:17:05;11.40;90.70
9271;DHT22;4673;53.458;9.940;2023-10-09T09:19:36;11.50;90.60
9271;DHT22;4673;53.458;9.940;2023-10-09T09:22:04;11.40;90.40
9271;DHT22;4673;53.458;9.940;2023-10-09T09:24:40;11.50;90.30
9271;DHT22;4673;53.458;9.940;2023-10-09T09:27:43;11.50;90.20
9271;DHT22;4673;53.458;9.940;2023-10-09T09:30:25;11.50;89.90
9271;DHT22;4673;53.458;9.940;2023-10-09T09:32:57;11.50;89.90
9271;DHT22;4673;53.458;9.940;2023-10-09T09:36:02;11.60;90.00
9271;DHT22;4673;53.458;9.940;2023-10-09T09:38:29;11.60;90.00
9271;DHT22;4673;53.458;9.940;2023-10-09T09:41:08;11.70;90.00
9271;DHT22;4673;53.458;9.940;2023-10-09T09:43:36;11.70;90.30
9271;DHT22;4673;53.458;9.940;2023-10-09T09:46:07;11.80;89.90
9271;DHT22;4673;53.458;9.940;2023-10-09T09:48:37;11.70;89.50
9271;DHT22;4673;53.458;9.940;2023-10-09T09:51:05;11.70;89.20
9271;DHT22;4673;53.458;9.940;2023-10-09T09:53:34;11.70;89.30
9271;DHT22;4673;53.458;9.940;2023-10-09T09:56:00;11.70;89.30
9271;DHT22;4673;53.458;9.940;2023-10-09T09:58:28;11.70;89.20
9271;DHT22;4673;53.458;9.940;2023-10-09T10:01:27;11.70;89.30
9271;DHT22;4673;53.458;9.940;2023-10-09T10:04:07;11.60;89.30
9271;DHT22;4673;53.458;9.940;2023-10-09T10:06:40;11.60;89.60
9271;DHT22;4673;53.458;9.940;2023-10-09T10:09:07;11.70;89.90
9271;DHT22;4673;53.458;9.940;2023-10-09T10:11:44;11.70;90.20
9271;DHT22;4673;53.458;9.940;2023-10-09T10:14:14;11.80;90.40
9271;DHT22;4673;53.458;9.940;2023-10-09T10:17:09;11.90;90.90
9271;DHT22;4673;53.458;9.940;2023-10-09T10:20:06;12.00;90.90
9271;DHT22;4673;53.458;9.940;2023-10-09T10:22:44;12.10;90.80
9271;DHT22;4673;53.458;9.940;2023-10-09T10:31:01;12.10;90.60
9271;DHT22;4673;53.458;9.940;2023-10-09T10:36:26;12.00;90.10
9271;DHT22;4673;53.458;9.940;2023-10-09T10:39:01;12.00;90.30
9271;DHT22;4673;53.458;9.940;2023-10-09T10:41:36;12.10;90.80
9271;DHT22;4673;53.458;9.940;2023-10-09T10:44:33;12.20;90.90
9271;DHT22;4673;53.458;9.940;2023-10-09T10:47:14;12.30;91.10
9271;DHT22;4673;53.458;9.940;2023-10-09T10:49:54;12.30;90.70
9271;DHT22;4673;53.458;9.940;2023-10-09T10:52:33;12.40;90.80
9271;DHT22;4673;53.458;9.940;2023-10-09T10:55:15;12.50;90.70
9271;DHT22;4673;53.458;9.940;2023-10-09T10:58:17;12.50;90.00
9271;DHT22;4673;53.458;9.940;2023-10-09T11:00:55;12.60;89.30
9271;DHT22;4673;53.458;9.940;2023-10-09T11:03:25;12.60;89.10
9271;DHT22;4673;53.458;9.940;2023-10-09T11:06:09;12.70;89.00
9271;DHT22;4673;53.458;9.940;2023-10-09T11:08:45;12.80;89.10
9271;DHT22;4673;53.458;9.940;2023-10-09T11:11:19;12.80;88.90
9271;DHT22;4673;53.458;9.940;2023-10-09T11:13:45;13.00;89.00
9271;DHT22;4673;53.458;9.940;2023-10-09T11:16:25;13.00;88.60
9271;DHT22;4673;53.458;9.940;2023-10-09T11:19:29;13.10;88.20
9271;DHT22;4673;53.458;9.940;2023-10-09T11:21:59;13.10;88.00
9271;DHT22;4673;53.458;9.940;2023-10-09T11:24:28;13.10;88.00
9271;DHT22;4673;53.458;9.940;2023-10-09T11:27:04;13.10;87.50
9271;DHT22;4673;53.458;9.940;2023-10-09T11:29:33;13.00;87.10
9271;DHT22;4673;53.458;9.940;2023-10-09T11:32:09;13.00;87.10
9271;DHT22;4673;53.458;9.940;2023-10-09T11:34:48;12.90;87.20
9271;DHT22;4673;53.458;9.940;2023-10-09T11:37:21;12.90;87.30
9271;DHT22;4673;53.458;9.940;2023-10-09T11:39:58;12.90;87.60
9271;DHT22;4673;53.458;9.940;2023-10-09T11:42:26;12.90;88.00
9271;DHT22;4673;53.458;9.940;2023-10-09T11:45:03;12.90;88.30
9271;DHT22;4673;53.458;9.940;2023-10-09T11:47:49;13.00;88.50
9271;DHT22;4673;53.458;9.940;2023-10-09T11:50:45;13.00;88.70
9271;DHT22;4673;53.458;9.940;2023-10-09T11:53:17;13.10;89.00
9271;DHT22;4673;53.458;9.940;2023-10-09T11:55:49;13.20;88.60
9271;DHT22;4673;53.458;9.940;2023-10-09T11:58:19;13.10;88.30
9271;DHT22;4673;53.458;9.940;2023-10-09T12:00:58;13.10;88.40
9271;DHT22;4673;53.458;9.940;2023-10-09T12:03:31;13.10;88.40
9271;DHT22;4673;53.458;9.940;2023-10-09T12:05:58;13.10;88.30
9271;DHT22;4673;53.458;9.940;2023-10-09T12:08:30;13.00;88.10
9271;DHT22;4673;53.458;9.940;2023-10-09T12:10:56;13.00;88.50
9271;DHT22;4673;53.458;9.940;2023-10-09T12:13:23;13.00;88.70
9271;DHT22;4673;53.458;9.940;2023-10-09T12:15:52;13.10;88.90
9271;DHT22;4673;53.458;9.940;2023-10-09T12:18:20;13.10;89.00
9271;DHT22;4673;53.458;9.940;2023-10-09T12:20:48;13.10;88.90
9271;DHT22;4673;53.458;9.940;2023-10-09T12:23:21;13.10;89.20
9271;DHT22;4673;53.458;9.940;2023-10-09T12:25:50;13.10;89.60
9271;DHT22;4673;53.458;9.940;2023-10-09T12:28:16;13.20;89.90
9271;DHT22;4673;53.458;9.940;2023-10-09T12:30:46;13.40;90.30
9271;DHT22;4673;53.458;9.940;2023-10-09T12:33:16;13.50;90.30
9271;DHT22;4673;53.458;9.940;2023-10-09T12:35:42;13.60;90.10
9271;DHT22;4673;53.458;9.940;2023-10-09T12:38:11;13.50;89.60
9271;DHT22;4673;53.458;9.940;2023-10-09T12:40:38;13.60;89.40
9271;DHT22;4673;53.458;9.940;2023-10-09T12:43:06;13.70;89.20
9271;DHT22;4673;53.458;9.940;2023-10-09T12:45:41;13.60;89.10
9271;DHT22;4673;53.458;9.940;2023-10-09T12:48:07;13.60;89.00
9271;DHT22;4673;53.458;9.940;2023-10-09T12:50:38;13.70;89.00
9271;DHT22;4673;53.458;9.940;2023-10-09T12:53:07;13.70;89.20
9271;DHT22;4673;53.458;9.940;2023-10-09T12:55:37;13.70;89.10
9271;DHT22;4673;53.458;9.940;2023-10-09T12:58:06;13.80;89.10
9271;DHT22;4673;53.458;9.940;2023-10-09T13:00:39;13.90;89.30
9271;DHT22;4673;53.458;9.940;2023-10-09T13:03:18;13.90;89.20
9271;DHT22;4673;53.458;9.940;2023-10-09T13:05:48;13.90;89.10
9271;DHT22;4673;53.458;9.940;2023-10-09T13:08:26;13.90;88.80
9271;DHT22;4673;53.458;9.940;2023-10-09T13:11:07;13.90;88.90
9271;DHT22;4673;53.458;9.940;2023-10-09T13:13:37;13.90;88.60
9271;DHT22;4673;53.458;9.940;2023-10-09T13:18:41;13.80;88.60
9271;DHT22;4673;53.458;9.940;2023-10-09T13:21:12;13.70;88.40
9271;DHT22;4673;53.458;9.940;2023-10-09T13:23:38;13.60;88.80
9271;DHT22;4673;53.458;9.940;2023-10-09T13:26:07;13.60;89.10
9271;DHT22;4673;53.458;9.940;2023-10-09T13:28:53;13.60;89.40
9271;DHT22;4673;53.458;9.940;2023-10-09T13:31:19;13.60;89.70
9271;DHT22;4673;53.458;9.940;2023-10-09T13:33:55;13.70;90.10
9271;DHT22;4673;53.458;9.940;2023-10-09T13:36:24;13.70;90.40
9271;DHT22;4673;53.458;9.940;2023-10-09T13:39:08;13.80;90.50
9271;DHT22;4673;53.458;9.940;2023-10-09T13:41:56;13.80;90.60
9271;DHT22;4673;53.458;9.940;2023-10-09T13:44:29;13.80;90.80
9271;DHT22;4673;53.458;9.940;2023-10-09T13:46:59;13.90;90.90
9271;DHT22;4673;53.458;9.940;2023-10-09T13:49:25;14.00;91.00
9271;DHT22;4673;53.458;9.940;2023-10-09T13:51:58;14.10;91.50
9271;DHT22;4673;53.458;9.940;2023-10-09T13:54:24;14.10;91.20
9271;DHT22;4673;53.458;9.940;2023-10-09T13:56:59;14.20;91.30
9271;DHT22;4673;53.458;9.940;2023-10-09T13:59:25;14.20;91.20
9271;DHT22;4673;53.458;9.940;2023-10-09T14:01:54;14.30;91.40
9271;DHT22;4673;53.458;9.940;2023-10-09T14:04:24;14.40;91.50
9271;DHT22;4673;53.458;9.940;2023-10-09T14:06:50;14.50;91.60
9271;DHT22;4673;53.458;9.940;2023-10-09T14:09:26;14.60;91.30
9271;DHT22;4673;53.458;9.940;2023-10-09T14:12:05;14.60;91.30
9271;DHT22;4673;53.458;9.940;2023-10-09T14:14:44;14.70;91.50
9271;DHT22;4673;53.458;9.940;2023-10-09T14:17:16;14.80;91.40
9271;DHT22;4673;53.458;9.940;2023-10-09T14:19:51;15.00;91.40
9271;DHT22;4673;53.458;9.940;2023-10-09T14:22:19;15.10;91.40
9271;DHT22;4673;53.458;9.940;2023-10-09T14:24:46;15.10;90.70
9271;DHT22;4673;53.458;9.940;2023-10-09T14:27:15;15.30;90.60
9271;DHT22;4673;53.458;9.940;2023-10-09T14:29:45;15.40;90.10
9271;DHT22;4673;53.458;9.940;2023-10-09T14:32:11;15.40;89.90
9271;DHT22;4673;53.458;9.940;2023-10-09T14:34:41;15.50;89.90
9271;DHT22;4673;53.458;9.940;2023-10-09T14:37:17;15.60;89.60
9271;DHT22;4673;53.458;9.940;2023-10-09T14:39:44;15.60;89.50
9271;DHT22;4673;53.458;9.940;2023-10-09T18:19:49;14.10;99.90
9271;DHT22;4673;53.458;9.940;2023-10-09T18:22:17;14.10;99.90
9271;DHT22;4673;53.458;9.940;2023-10-09T18:24:43;14.20;99.90
9271;DHT22;4673;53.458;9.940;2023-10-09T18:27:09;14.20;99.90
9271;DHT22;4673;53.458;9.940;2023-10-09T18:29:39;14.10;99.90
9271;DHT22;4673;53.458;9.940;2023-10-09T18:32:05;14.20;99.90
9271;DHT22;4673;53.458;9.940;2023-10-09T18:34:31;14.10;99.90
9271;DHT22;4673;53.458;9.940;2023-10-09T18:36:56;14.10;99.90
9271;DHT22;4673;53.458;9.940;2023-10-09T18:39:22;14.10;99.90
9271;DHT22;4673;53.458;9.940;2023-10-09T18:41:51;14.10;99.90
9271;DHT22;4673;53.458;9.940;2023-10-09T18:44:20;14.10;99.90
9271;DHT22;4673;53.458;9.940;2023-10-09T18:46:46;14.10;99.90
9271;DHT22;4673;53.458;9.940;2023-10-09T18:49:13;14.20;99.90
9271;DHT22;4673;53.458;9.940;2023-10-09T18:51:39;14.20;99.90
9271;DHT22;4673;53.458;9.940;2023-10-09T18:54:05;14.20;99.90
9271;DHT22;4673;53.458;9.940;2023-10-09T18:56:32;14.20;99.90
9271;DHT22;4673;53.458;9.940;2023-10-09T18:59:01;14.20;99.90
9271;DHT22;4673;53.458;9.940;2023-10-09T19:01:33;14.10;99.90
9271;DHT22;4673;53.458;9.940;2023-10-09T19:04:00;14.10;99.90
9271;DHT22;4673;53.458;9.940;2023-10-09T19:06:29;14.20;99.90
9271;DHT22;4673;53.458;9.940;2023-10-09T19:08:55;14.10;99.90
9271;DHT22;4673;53.458;9.940;2023-10-09T19:11:24;14.10;99.90
9271;DHT22;4673;53.458;9.940;2023-10-09T19:13:50;14.10;99.90
9271;DHT22;4673;53.458;9.940;2023-10-09T19:16:16;14.10;99.90
9271;DHT22;4673;53.458;9.940;2023-10-09T19:18:41;14.10;99.90
9271;DHT22;4673;53.458;9.940;2023-10-09T19:21:08;14.10;99.90
9271;DHT22;4673;53.458;9.940;2023-10-09T19:23:36;14.10;99.90
9271;DHT22;4673;53.458;9.940;2023-10-09T19:26:03;14.10;99.90
9271;DHT22;4673;53.458;9.940;2023-10-09T19:28:29;14.10;99.90
9271;DHT22;4673;53.458;9.940;2023-10-09T19:31:09;14.10;99.90
9271;DHT22;4673;53.458;9.940;2023-10-09T19:33:35;14.10;99.90
9271;DHT22;4673;53.458;9.940;2023-10-09T19:36:04;14.10;99.90
9271;DHT22;4673;53.458;9.940;2023-10-09T19:38:40;14.10;99.90
9271;DHT22;4673;53.458;9.940;2023-10-09T19:41:06;14.10;99.90
9271;DHT22;4673;53.458;9.940;2023-10-09T19:43:32;14.10;99.90
9271;DHT22;4673;53.458;9.940;2023-10-09T19:46:03;14.10;99.90
9271;DHT22;4673;53.458;9.940;2023-10-09T19:48:29;14.10;99.90
9271;DHT22;4673;53.458;9.940;2023-10-09T19:50:59;14.10;99.90
9271;DHT22;4673;53.458;9.940;2023-10-09T19:53:25;14.10;99.90
9271;DHT22;4673;53.458;9.940;2023-10-09T19:55:50;14.10;99.90
9271;DHT22;4673;53.458;9.940;2023-10-09T19:58:16;14.20;99.90
9271;DHT22;4673;53.458;9.940;2023-10-09T20:00:42;14.20;99.90
9271;DHT22;4673;53.458;9.940;2023-10-09T20:03:08;14.10;99.90
9271;DHT22;4673;53.458;9.940;2023-10-09T20:05:37;14.20;99.90
9271;DHT22;4673;53.458;9.940;2023-10-09T20:08:03;14.10;99.90
9271;DHT22;4673;53.458;9.940;2023-10-09T20:10:29;14.10;99.90
9271;DHT22;4673;53.458;9.940;2023-10-09T20:12:56;14.10;99.90
9271;DHT22;4673;53.458;9.940;2023-10-09T20:15:22;14.10;99.90
9271;DHT22;4673;53.458;9.940;2023-10-09T20:17:48;14.10;99.90
9271;DHT22;4673;53.458;9.940;2023-10-09T20:20:13;14.10;99.90
9271;DHT22;4673;53.458;9.940;2023-10-09T20:22:40;14.10;99.90
9271;DHT22;4673;53.458;9.940;2023-10-09T20:25:06;14.10;99.90
9271;DHT22;4673;53.458;9.940;2023-10-09T20:27:41;14.10;99.90
9271;DHT22;4673;53.458;9.940;2023-10-09T20:30:10;14.10;99.90
9271;DHT22;4673;53.458;9.940;2023-10-09T20:32:38;14.10;99.90
9271;DHT22;4673;53.458;9.940;2023-10-09T20:35:04;14.10;99.90
9271;DHT22;4673;53.458;9.940;2023-10-09T20:37:38;14.10;99.90
9271;DHT22;4673;53.458;9.940;2023-10-09T20:40:03;14.00;99.90